This is the latest recevied weather packets stored in our database for station/object XE2G-31. If no packets are shown the sender has not sent any weather packets the latest 10 day(s).
| Time | Temp. | Humidity | Pressure | Rain* | Wind** | Luminosity | Snow |
|---|---|---|---|---|---|---|---|
| 1778188531 | 27.22° C | 62% | 870 hPa | - | - | - | - |
| 1778187584 | 26.67° C | 64% | 870 hPa | - | - | - | - |
| 1778186637 | 25.56° C | 71% | 870 hPa | - | - | - | - |
| 1778185690 | 25.56° C | 71% | 870 hPa | - | - | - | - |
| 1778184744 | 25° C | 73% | 870 hPa | - | - | - | - |
| 1778183797 | 23.89° C | 76% | 870 hPa | - | - | - | - |
| 1778182850 | 24.44° C | 76% | 871 hPa | - | - | - | - |
| 1778181903 | 24.44° C | 77% | 871 hPa | - | - | - | - |
| 1778180956 | 23.33° C | 78% | 871 hPa | - | - | - | - |
| 1778180009 | 25° C | 72% | 871 hPa | - | - | - | - |
| 1778179062 | 25° C | 72% | 871 hPa | - | - | - | - |
| 1778178116 | 24.44° C | 74% | 871 hPa | - | - | - | - |
| 1778177169 | 24.44° C | 73% | 872 hPa | - | - | - | - |
| 1778176222 | 25.56° C | 71% | 872 hPa | - | - | - | - |
| 1778175275 | 23.89° C | 76% | 872 hPa | - | - | - | - |
| 1778174328 | 23.89° C | 77% | 872 hPa | - | - | - | - |
| 1778173381 | 23.89° C | 78% | 872 hPa | - | - | - | - |
| 1778172435 | 23.89° C | 79% | 872 hPa | - | - | - | - |
| 1778171488 | 23.89° C | 80% | 872 hPa | - | - | - | - |
| 1778170541 | 23.33° C | 79% | 872 hPa | - | - | - | - |
| 1778169594 | 23.89° C | 77% | 872 hPa | - | - | - | - |
| 1778168648 | 24.44° C | 76% | 872 hPa | - | - | - | - |
| 1778167700 | 25.56° C | 71% | 872 hPa | - | - | - | - |
| 1778166754 | 26.11° C | 67% | 872 hPa | - | - | - | - |
| 1778165807 | 28.89° C | 57% | 872 hPa | - | - | - | - |
* Rain since midnight (hover to see other rain measurements)
** Current wind speed in m/s (hover to see current wind gust speed)